createdAt,value
2018-03-11T07:35:15.807Z,20.29
2018-03-11T07:36:15.771Z,19.24
2018-03-11T07:37:15.799Z,18.21
2018-03-11T07:38:15.790Z,17.84
2018-03-11T07:39:15.794Z,16.92
2018-03-11T07:40:15.888Z,16.74
2018-03-11T07:41:15.856Z,16.62
2018-03-11T07:42:15.842Z,16.80
2018-03-11T07:43:15.847Z,17.05
2018-03-11T07:44:15.877Z,17.02
2018-03-11T07:45:15.869Z,16.91
2018-03-11T07:46:15.922Z,16.98
2018-03-11T07:47:15.898Z,17.23
2018-03-11T07:48:15.916Z,16.80
2018-03-11T07:49:15.930Z,16.91
2018-03-11T07:50:15.933Z,16.39
2018-03-11T07:51:15.981Z,15.88
2018-03-11T07:52:15.993Z,15.76
2018-03-11T07:53:15.980Z,15.76
2018-03-11T07:54:15.994Z,15.96
2018-03-11T07:55:16.009Z,15.85
2018-03-11T07:56:16.014Z,16.12
2018-03-11T07:57:16.074Z,15.96
2018-03-11T07:58:16.068Z,16.12
2018-03-11T07:59:16.063Z,16.22
2018-03-11T08:00:16.089Z,16.13
2018-03-11T08:01:17.430Z,16.34
2018-03-11T08:02:16.164Z,16.02
2018-03-11T08:03:16.117Z,16.34
2018-03-11T08:04:16.126Z,16.08
2018-03-11T08:05:16.139Z,16.34
2018-03-11T08:06:16.174Z,16.10
2018-03-11T08:07:16.217Z,16.05
2018-03-11T08:08:16.214Z,15.51
2018-03-11T08:09:16.210Z,15.41
2018-03-11T08:10:16.219Z,15.32
2018-03-11T08:11:16.231Z,15.07
2018-03-11T08:12:16.285Z,15.43
2018-03-11T08:13:16.286Z,15.62
2018-03-11T08:14:16.275Z,15.50
2018-03-11T08:15:16.293Z,15.25
2018-03-11T08:16:16.307Z,15.23
2018-03-11T08:17:16.336Z,15.07
2018-03-11T08:18:16.375Z,15.41
2018-03-11T08:19:16.343Z,15.59
2018-03-11T08:20:16.436Z,15.67
2018-03-11T08:21:16.389Z,15.50
2018-03-11T08:22:16.391Z,15.62
2018-03-11T08:23:16.439Z,15.67
2018-03-11T08:24:16.550Z,15.65
2018-03-11T08:25:16.434Z,15.76
2018-03-11T08:26:16.446Z,16.02
2018-03-11T08:27:16.475Z,16.22
2018-03-11T08:28:16.480Z,16.29
2018-03-11T08:29:16.515Z,16.58
2018-03-11T08:30:16.514Z,16.40
2018-03-11T08:31:16.563Z,16.59
2018-03-11T08:32:16.528Z,16.73
2018-03-11T08:33:16.607Z,16.86
2018-03-11T08:34:16.583Z,17.04
2018-03-11T08:35:16.606Z,17.05
2018-03-11T08:36:16.649Z,17.14
2018-03-11T08:37:16.615Z,17.28
2018-03-11T08:38:16.626Z,17.23
2018-03-11T08:39:16.675Z,17.28
2018-03-11T08:40:16.671Z,17.41
2018-03-11T08:41:16.694Z,17.56
2018-03-11T08:42:16.710Z,17.49
2018-03-11T08:43:16.705Z,17.31
2018-03-11T08:44:16.713Z,17.20
2018-03-11T08:45:16.731Z,17.04
2018-03-11T08:46:16.782Z,17.22
2018-03-11T08:47:16.873Z,17.19
2018-03-11T08:48:16.785Z,17.19
2018-03-11T08:49:16.802Z,17.12
2018-03-11T08:50:16.843Z,16.82
2018-03-11T08:51:16.835Z,16.47
2018-03-11T08:52:16.879Z,16.17
2018-03-11T08:53:16.864Z,15.96
2018-03-11T08:54:16.904Z,15.84
2018-03-11T08:55:16.903Z,15.57
2018-03-11T08:56:16.898Z,15.45
2018-03-11T08:57:16.956Z,15.29
2018-03-11T08:58:17.013Z,15.10
2018-03-11T08:59:17.012Z,15.14
2018-03-11T09:00:16.977Z,15.08
2018-03-11T09:01:17.024Z,15.00
2018-03-11T09:02:17.045Z,14.90
2018-03-11T09:03:17.003Z,14.78
2018-03-11T09:04:17.025Z,14.81
2018-03-11T09:05:17.050Z,14.78
2018-03-11T09:06:17.059Z,14.78
2018-03-11T09:07:17.136Z,14.68
2018-03-11T09:08:17.078Z,14.56
2018-03-11T09:09:17.131Z,14.63
2018-03-11T09:10:17.148Z,14.62
2018-03-11T09:11:17.120Z,14.49
2018-03-11T12:34:26.704Z,20.50
2018-03-11T12:35:26.622Z,20.22
2018-03-11T12:36:26.630Z,19.78
2018-03-11T12:37:26.637Z,19.64
2018-03-11T12:38:26.659Z,19.32
2018-03-11T12:39:26.675Z,19.17
2018-03-11T12:40:26.687Z,18.98
2018-03-11T12:41:26.707Z,18.88
2018-03-11T12:42:26.677Z,18.76
2018-03-11T12:43:26.687Z,18.68
2018-03-11T12:44:26.708Z,18.51
2018-03-11T12:45:26.716Z,18.37
2018-03-11T12:46:26.758Z,18.30
2018-03-11T12:47:26.735Z,18.19
2018-03-11T12:48:26.759Z,18.15
2018-03-11T12:49:26.766Z,18.11
2018-03-11T12:50:26.771Z,18.08
2018-03-11T12:51:26.827Z,17.97
2018-03-11T12:52:26.802Z,17.78
2018-03-11T12:53:26.839Z,17.86
2018-03-11T12:54:26.822Z,17.72
2018-03-11T12:55:26.888Z,17.63
2018-03-11T12:56:26.858Z,17.59
2018-03-11T12:57:26.845Z,17.56
2018-03-11T12:58:26.847Z,17.44
2018-03-11T12:59:26.863Z,17.42
2018-03-11T13:00:26.909Z,17.37
2018-03-11T13:01:26.891Z,17.32
2018-03-11T13:02:26.919Z,17.24
2018-03-11T13:03:26.922Z,17.19
2018-03-11T13:04:26.925Z,17.24
2018-03-11T13:05:26.989Z,17.13
2018-03-11T13:06:27.028Z,17.27
2018-03-11T13:07:26.969Z,17.22
2018-03-11T13:08:26.982Z,17.23
2018-03-11T13:09:27.034Z,17.22
2018-03-11T13:10:27.062Z,17.07
2018-03-11T13:11:27.018Z,17.16
2018-03-11T13:12:27.046Z,17.07
2018-03-11T13:13:27.052Z,17.12
2018-03-11T13:14:27.067Z,17.12
2018-03-11T13:15:27.096Z,17.16
2018-03-11T13:16:27.123Z,17.12
2018-03-11T13:17:27.128Z,17.02
2018-03-11T13:18:27.112Z,17.07
2018-03-11T13:19:27.160Z,17.05
2018-03-11T13:20:27.222Z,17.05
2018-03-11T13:21:27.178Z,17.12
2018-03-11T13:22:27.157Z,17.14
2018-03-11T13:23:27.172Z,17.13
2018-03-11T13:24:27.194Z,17.13
2018-03-11T13:25:27.288Z,17.20
2018-03-11T13:26:27.228Z,17.23
2018-03-11T13:27:27.232Z,17.20
2018-03-11T13:28:27.302Z,17.24
2018-03-11T13:29:27.261Z,17.20
2018-03-11T13:30:27.274Z,17.22
2018-03-11T13:31:27.292Z,17.12
2018-03-11T13:32:27.294Z,17.23
2018-03-11T13:33:27.357Z,17.28
2018-03-11T13:34:27.326Z,17.22
2018-03-11T13:35:27.358Z,17.32
2018-03-11T13:36:27.354Z,17.35
2018-03-11T13:37:27.359Z,17.38
2018-03-11T13:38:27.487Z,17.35
2018-03-11T13:39:27.394Z,17.27
2018-03-11T13:40:27.428Z,17.46
2018-03-11T13:41:27.415Z,17.42
2018-03-11T13:42:27.460Z,17.47
2018-03-11T13:43:27.517Z,17.56
2018-03-11T13:44:27.507Z,17.57
2018-03-11T13:45:27.473Z,17.47
2018-03-11T13:46:27.627Z,17.47
2018-03-11T13:47:27.500Z,17.53
2018-03-11T13:48:27.516Z,17.47
2018-03-11T13:49:27.539Z,17.53
2018-03-11T13:50:27.552Z,17.60
2018-03-11T13:51:27.556Z,17.63
2018-03-11T13:52:27.640Z,17.63
2018-03-11T13:53:27.578Z,17.59
2018-03-11T13:54:27.605Z,17.63
2018-03-11T13:55:27.609Z,17.65
2018-03-11T13:56:27.646Z,17.54
2018-03-11T13:57:27.696Z,17.56
2018-03-11T13:58:27.671Z,17.56
2018-03-11T13:59:27.684Z,17.59
2018-03-11T14:00:27.674Z,17.63
2018-03-11T14:01:27.697Z,17.68
2018-03-11T14:02:27.735Z,17.68
2018-03-11T14:03:27.770Z,17.68
2018-03-11T14:04:27.894Z,17.63
2018-03-11T14:05:27.770Z,17.60
2018-03-11T14:06:27.907Z,17.59
2018-03-11T14:07:27.864Z,17.59
2018-03-11T14:08:27.815Z,17.72
2018-03-11T14:09:27.863Z,17.73
2018-03-11T14:10:27.834Z,17.78
2018-03-11T14:11:27.879Z,17.65
2018-03-11T14:12:27.889Z,17.80
2018-03-11T14:13:27.998Z,17.72
2018-03-11T14:14:27.892Z,17.84
2018-03-11T14:15:27.913Z,17.82
2018-03-11T14:16:27.915Z,17.80
2018-03-11T14:17:27.930Z,17.88
2018-03-11T14:18:27.951Z,17.84
2018-03-11T14:19:27.996Z,17.84
2018-03-11T14:20:27.977Z,17.86
2018-03-11T14:21:27.990Z,17.94
2018-03-11T14:22:28.005Z,17.93
2018-03-11T14:23:28.033Z,17.97
2018-03-11T14:24:28.073Z,17.86
2018-03-11T14:25:28.040Z,17.88
2018-03-11T14:26:28.085Z,17.86
2018-03-11T14:27:28.102Z,17.88
2018-03-11T14:28:28.089Z,17.91
2018-03-11T14:29:28.128Z,17.94
2018-03-11T14:30:28.169Z,17.97
2018-03-11T14:31:28.143Z,17.94
2018-03-11T14:32:28.137Z,17.97
2018-03-11T14:33:28.188Z,17.97
2018-03-11T14:34:28.256Z,17.98
2018-03-11T14:35:28.186Z,17.93
2018-03-11T14:36:28.196Z,17.88
2018-03-11T14:37:28.209Z,17.93
2018-03-11T14:38:28.273Z,17.93
2018-03-11T14:39:28.259Z,17.91
2018-03-11T14:40:28.247Z,17.86
2018-03-11T14:41:28.288Z,17.93
2018-03-11T14:42:28.280Z,17.98
2018-03-11T14:43:28.353Z,17.93
2018-03-11T14:44:28.309Z,17.97
2018-03-11T14:45:28.330Z,17.94
2018-03-11T14:46:28.331Z,17.93
2018-03-11T14:47:28.352Z,17.98
2018-03-11T14:48:28.406Z,17.95
2018-03-11T14:49:28.388Z,17.93
2018-03-11T14:50:28.394Z,17.93
2018-03-11T14:51:28.404Z,17.93
2018-03-11T14:52:28.420Z,17.98
2018-03-11T14:53:28.471Z,17.97
2018-03-11T14:54:28.477Z,17.98
2018-03-11T14:55:28.483Z,17.97
2018-03-11T14:56:28.749Z,17.94
2018-03-11T14:57:28.494Z,17.87
2018-03-11T14:58:28.510Z,17.93
2018-03-11T14:59:28.541Z,17.91
2018-03-11T15:00:28.579Z,17.94
2018-03-11T15:01:28.588Z,17.98
2018-03-11T15:02:28.595Z,17.95
2018-03-11T15:03:28.640Z,18.02
2018-03-11T15:04:28.638Z,18.02
2018-03-11T15:05:28.629Z,18.03
2018-03-11T15:06:28.637Z,18.03
